Time;durP1;ratioP1;P1;durP2;ratioP2;P2;SDS_P1;SDS_P2;PMS_P1;PMS_P2;Temp;Humidity;BMP_temperature;BMP_pressure;BME280_temperature;BME280_humidity;BME280_pressure;Samples;Min_cycle;Max_cycle;Signal;HPM_P1;HPM_P2
2024/02/20 00:00:08;;;;;;;23.73;22.30;;;;;;;-0.88;100.00;101951.66;5050618;28;20056;-76
2024/02/20 00:02:44;;;;;;;27.10;25.40;;;;;;;-0.84;100.00;101945.31;5050570;28;20049;-77
2024/02/20 00:05:11;;;;;;;27.40;25.80;;;;;;;-0.78;100.00;101944.09;5050103;28;20048;-74
2024/02/20 00:07:41;;;;;;;25.52;24.02;;;;;;;-0.86;100.00;101939.38;5058939;28;20135;-74
2024/02/20 00:10:10;;;;;;;26.70;25.20;;;;;;;-1.20;100.00;101932.94;5058008;28;20049;-76
2024/02/20 00:12:37;;;;;;;25.02;23.50;;;;;;;-1.02;100.00;101934.34;5045810;28;20487;-75
2024/02/20 00:15:06;;;;;;;25.40;23.90;;;;;;;-0.81;100.00;101936.47;5030650;28;20065;-74
2024/02/20 00:17:41;;;;;;;26.45;24.77;;;;;;;-0.77;100.00;101937.94;5049601;28;20137;-78
2024/02/20 00:20:08;;;;;;;26.17;24.35;;;;;;;-0.92;100.00;101938.00;5050584;28;20064;-78
2024/02/20 00:22:35;;;;;;;27.80;26.02;;;;;;;-0.79;100.00;101942.41;5050554;28;20049;-75
2024/02/20 00:25:02;;;;;;;29.27;27.48;;;;;;;-0.93;100.00;101940.72;5050195;28;20056;-76
2024/02/20 00:27:31;;;;;;;29.75;27.85;;;;;;;-0.97;100.00;101940.09;5050095;28;20045;-77
2024/02/20 00:29:58;;;;;;;28.23;26.35;;;;;;;-0.96;100.00;101931.31;5054192;28;20065;-78
2024/02/20 00:32:25;;;;;;;28.05;26.45;;;;;;;-1.31;100.00;101938.00;5050371;28;20063;-76
2024/02/20 00:34:54;;;;;;;30.10;27.98;;;;;;;-1.11;100.00;101932.34;5049639;28;20084;-75
2024/02/20 00:37:25;;;;;;;29.55;27.85;;;;;;;-1.00;100.00;101927.25;5050082;28;20063;-75
2024/02/20 00:39:52;;;;;;;29.30;27.20;;;;;;;-1.22;100.00;101930.41;5050687;28;20583;-76
2024/02/20 00:42:19;;;;;;;30.50;28.70;;;;;;;-1.15;100.00;101933.44;5050292;28;20075;-76
2024/02/20 00:45:04;;;;;;;27.40;25.77;;;;;;;-1.29;100.00;101939.56;5049855;28;20523;-75
2024/02/20 00:47:31;;;;;;;29.65;27.88;;;;;;;-1.08;100.00;101937.34;5061842;28;20104;-74
2024/02/20 00:49:59;;;;;;;27.52;25.92;;;;;;;-0.88;100.00;101940.41;5050015;28;20057;-75
2024/02/20 00:52:26;;;;;;;24.85;23.35;;;;;;;-0.82;100.00;101940.81;5049711;28;20051;-75
2024/02/20 00:54:53;;;;;;;26.20;24.60;;;;;;;-0.75;100.00;101926.44;5049858;28;20428;-75
2024/02/20 00:57:26;;;;;;;29.02;27.33;;;;;;;-0.59;100.00;101935.84;5050039;28;20849;-77
2024/02/20 00:59:53;;;;;;;27.23;25.27;;;;;;;-1.11;100.00;101942.75;5048681;28;20923;-78
2024/02/20 01:02:20;;;;;;;24.65;23.05;;;;;;;-1.00;100.00;101934.22;5049498;28;20744;-75
2024/02/20 01:04:47;;;;;;;23.60;22.10;;;;;;;-0.99;100.00;101936.75;5049320;28;20517;-78
2024/02/20 01:07:18;;;;;;;26.63;24.83;;;;;;;-1.06;100.00;101930.28;5050190;28;20067;-77
2024/02/20 01:09:45;;;;;;;29.20;27.23;;;;;;;-1.33;100.00;101932.91;5048986;28;20512;-74
2024/02/20 01:12:12;;;;;;;26.67;23.90;;;;;;;-1.42;100.00;101938.69;5042089;28;20783;-74
2024/02/20 01:14:47;;;;;;;25.30;23.70;;;;;;;-1.56;100.00;101936.13;5047174;28;20056;-75
2024/02/20 01:17:14;;;;;;;27.48;25.75;;;;;;;-1.56;100.00;101925.72;5031151;28;20506;-75
2024/02/20 01:19:41;;;;;;;26.90;25.10;;;;;;;-1.63;100.00;101923.50;5048660;28;20055;-75
2024/02/20 01:22:08;;;;;;;28.77;26.52;;;;;;;-1.55;100.00;101924.75;5049766;28;20845;-79
2024/02/20 01:24:36;;;;;;;31.17;29.10;;;;;;;-1.66;100.00;101913.25;5048502;28;20052;-79
2024/02/20 01:27:05;;;;;;;27.85;26.00;;;;;;;-1.45;100.00;101918.88;5048746;28;20049;-80
2024/02/20 01:29:31;;;;;;;31.02;28.85;;;;;;;-1.50;100.00;101922.72;5049179;28;20053;-78
2024/02/20 01:31:59;;;;;;;31.15;28.73;;;;;;;-1.87;100.00;101920.66;5049131;28;20080;-75
2024/02/20 01:34:26;;;;;;;28.10;26.30;;;;;;;-1.54;100.00;101919.47;5048772;28;20131;-74
2024/02/20 01:36:53;;;;;;;27.33;25.48;;;;;;;-1.43;100.00;101919.59;5049829;28;20052;-74
2024/02/20 01:39:20;;;;;;;26.98;25.20;;;;;;;-1.31;100.00;101922.34;5048824;28;20500;-74
2024/02/20 01:41:50;;;;;;;25.60;23.90;;;;;;;-1.53;100.00;101925.50;5048623;28;20049;-75
2024/02/20 01:44:17;;;;;;;26.35;24.65;;;;;;;-1.38;100.00;101922.75;5049077;28;20153;-75
2024/02/20 01:46:45;;;;;;;30.15;28.10;;;;;;;-1.86;100.00;101921.50;5050130;28;20059;-75
2024/02/20 01:49:12;;;;;;;28.27;26.48;;;;;;;-1.38;100.00;101922.75;5053355;28;20075;-74
2024/02/20 01:51:40;;;;;;;29.60;27.80;;;;;;;-1.11;100.00;101918.47;5052711;28;20040;-74
2024/02/20 01:54:07;;;;;;;30.73;28.60;;;;;;;-0.99;100.00;101918.47;5049932;28;20049;-76
2024/02/20 01:56:36;;;;;;;28.48;26.05;;;;;;;-1.05;100.00;101911.06;5037642;28;20440;-74
2024/02/20 01:59:05;;;;;;;27.13;25.33;;;;;;;-1.09;100.00;101912.22;5052817;28;20578;-75
2024/02/20 02:01:48;;;;;;;26.40;24.80;;;;;;;-1.26;100.00;101910.69;5052392;28;20049;-75
2024/02/20 02:04:15;;;;;;;29.10;27.20;;;;;;;-1.34;100.00;101910.34;5052068;28;20582;-75
2024/02/20 02:07:06;;;;;;;33.95;31.75;;;;;;;-1.46;100.00;101905.94;5053029;28;20052;-76
2024/02/20 02:09:33;;;;;;;35.13;32.42;;;;;;;-1.41;100.00;101906.47;4983808;28;20059;-75
2024/02/20 02:12:07;;;;;;;31.13;29.23;;;;;;;-1.39;100.00;101899.41;5045819;28;20061;-75
2024/02/20 02:14:35;;;;;;;28.38;26.58;;;;;;;-1.68;100.00;101904.69;5045994;28;20592;-75
2024/02/20 02:17:02;;;;;;;32.08;30.05;;;;;;;-1.75;100.00;101893.00;5052599;28;20132;-75
2024/02/20 02:19:39;;;;;;;32.90;30.50;;;;;;;-1.79;100.00;101896.72;5052923;28;20053;-75
2024/02/20 02:22:09;;;;;;;29.98;28.08;;;;;;;-1.66;100.00;101895.03;5052796;28;20049;-76
2024/02/20 02:24:37;;;;;;;27.20;25.60;;;;;;;-1.64;100.00;101892.31;5052599;28;20124;-77
2024/02/20 02:27:06;;;;;;;26.88;25.17;;;;;;;-1.67;100.00;101893.34;5053321;28;20136;-77
2024/02/20 02:29:33;;;;;;;33.28;30.48;;;;;;;-1.78;100.00;101894.97;5035056;28;20073;-77
2024/02/20 02:32:00;;;;;;;29.30;27.40;;;;;;;-1.73;100.00;101891.13;5051969;28;20127;-76
2024/02/20 02:34:29;;;;;;;31.17;29.38;;;;;;;-1.76;100.00;101888.72;5050646;28;20051;-76
2024/02/20 02:36:56;;;;;;;29.50;27.73;;;;;;;-1.73;100.00;101892.91;5051277;28;20106;-78
2024/02/20 02:39:24;;;;;;;28.95;27.15;;;;;;;-1.90;100.00;101880.94;5051980;28;20110;-74
2024/02/20 02:41:51;;;;;;;31.55;29.75;;;;;;;-1.77;100.00;101881.84;5051599;28;20071;-75
2024/02/20 02:44:20;;;;;;;34.00;32.10;;;;;;;-1.63;100.00;101880.97;5043564;28;20057;-74
2024/02/20 02:46:47;;;;;;;26.63;25.20;;;;;;;-1.63;100.00;101883.56;5052285;28;20639;-74
2024/02/20 02:49:14;;;;;;;28.20;26.80;;;;;;;-1.87;100.00;101881.59;5052085;28;20053;-74
2024/02/20 02:51:41;;;;;;;28.17;26.77;;;;;;;-2.27;100.00;101885.81;5051340;28;20053;-74
2024/02/20 02:54:08;;;;;;;28.42;26.92;;;;;;;-2.24;100.00;101884.78;5051326;28;20444;-75
2024/02/20 02:56:36;;;;;;;28.38;26.65;;;;;;;-2.20;100.00;101884.53;5051163;28;20052;-78
2024/02/20 02:59:08;;;;;;;27.98;26.48;;;;;;;-2.04;100.00;101881.81;5050934;28;20127;-79
2024/02/20 03:01:37;;;;;;;32.35;30.75;;;;;;;-2.02;100.00;101886.94;5042316;28;20045;-77
2024/02/20 03:04:04;;;;;;;26.60;25.17;;;;;;;-1.99;100.00;101887.56;5049796;28;20122;-76
2024/02/20 03:06:37;;;;;;;33.13;31.42;;;;;;;-1.84;100.00;101883.16;5035033;28;20067;-76
2024/02/20 03:09:12;;;;;;;35.78;33.85;;;;;;;-1.77;100.00;101888.81;5051126;28;20049;-78
2024/02/20 03:11:39;;;;;;;30.85;29.33;;;;;;;-1.84;100.00;101890.97;5050897;28;20904;-77
2024/02/20 03:14:07;;;;;;;28.40;26.52;;;;;;;-1.81;100.00;101887.34;5045284;28;20543;-78
2024/02/20 03:16:34;;;;;;;34.25;32.45;;;;;;;-1.72;100.00;101882.41;5051017;28;20138;-78
2024/02/20 03:19:03;;;;;;;33.95;32.25;;;;;;;-1.73;100.00;101882.47;5051451;28;20049;-75
2024/02/20 03:21:37;;;;;;;31.48;29.88;;;;;;;-1.63;100.00;101881.81;5051170;28;20049;-75
2024/02/20 03:24:05;;;;;;;32.63;30.70;;;;;;;-1.65;100.00;101886.28;5050458;28;20118;-78
2024/02/20 03:26:32;;;;;;;31.02;29.42;;;;;;;-1.73;100.00;101885.91;5051089;28;20455;-75
2024/02/20 03:28:59;;;;;;;34.15;32.22;;;;;;;-1.50;100.00;101892.25;5050818;28;20056;-75
2024/02/20 03:31:26;;;;;;;31.35;29.52;;;;;;;-1.41;100.00;101891.66;5050976;28;20049;-76
2024/02/20 03:33:53;;;;;;;36.88;34.10;;;;;;;-1.22;100.00;101893.06;5050362;28;20098;-77
2024/02/20 03:36:22;;;;;;;30.00;28.27;;;;;;;-1.10;100.00;101894.03;5051051;28;20053;-78
2024/02/20 03:38:49;;;;;;;34.80;32.85;;;;;;;-1.06;100.00;101903.31;5050708;28;20052;-77
2024/02/20 03:41:16;;;;;;;34.10;32.33;;;;;;;-1.03;100.00;101900.50;5050561;28;20140;-77
2024/02/20 03:43:43;;;;;;;31.48;29.88;;;;;;;-0.90;100.00;101896.19;5050844;28;20155;-79
2024/02/20 03:46:11;;;;;;;31.85;30.15;;;;;;;-0.95;100.00;101893.84;5050686;28;20067;-76
2024/02/20 03:48:38;;;;;;;27.75;26.05;;;;;;;-1.16;100.00;101897.88;5050960;28;20041;-76
2024/02/20 03:51:06;;;;;;;29.67;27.95;;;;;;;-1.12;100.00;101901.13;5050854;28;20056;-76
2024/02/20 03:53:34;;;;;;;27.55;25.95;;;;;;;-1.32;100.00;101894.63;5050704;28;20061;-77
2024/02/20 03:56:01;;;;;;;25.42;23.77;;;;;;;-1.51;100.00;101911.44;5050539;28;20049;-77
2024/02/20 03:58:28;;;;;;;26.70;25.00;;;;;;;-1.51;100.00;101913.19;5050508;28;20052;-78
2024/02/20 04:00:55;;;;;;;26.58;24.98;;;;;;;-1.69;100.00;101908.25;5050384;28;20811;-76
2024/02/20 04:03:22;;;;;;;27.27;25.67;;;;;;;-1.80;100.00;101899.44;5050062;28;20053;-79
2024/02/20 04:05:52;;;;;;;30.58;28.50;;;;;;;-1.67;100.00;101902.94;5050679;28;20061;-74
2024/02/20 04:08:19;;;;;;;28.55;26.83;;;;;;;-1.64;100.00;101898.34;5049532;28;20128;-75
2024/02/20 04:10:56;;;;;;;30.13;28.00;;;;;;;-1.73;100.00;101896.34;5049707;28;20049;-74
2024/02/20 04:13:25;;;;;;;28.38;26.67;;;;;;;-1.78;100.00;101905.41;5045248;28;20714;-78
2024/02/20 04:15:52;;;;;;;26.95;25.23;;;;;;;-1.96;100.00;101910.81;5050581;28;20156;-74
2024/02/20 04:18:19;;;;;;;28.05;26.25;;;;;;;-1.66;100.00;101910.66;5049606;28;20483;-74
2024/02/20 04:20:49;;;;;;;30.77;28.75;;;;;;;-1.31;100.00;101909.31;5049851;28;20071;-76
2024/02/20 04:23:23;;;;;;;25.88;24.25;;;;;;;-1.68;100.00;101909.91;5050226;28;20099;-74
2024/02/20 04:25:50;;;;;;;29.35;27.55;;;;;;;-1.62;100.00;101908.69;5039082;28;20084;-75
2024/02/20 04:28:22;;;;;;;28.10;26.45;;;;;;;-1.50;100.00;101907.06;5050006;28;20048;-74
2024/02/20 04:30:48;;;;;;;29.88;28.00;;;;;;;-1.34;100.00;101912.97;5049939;28;20049;-74
2024/02/20 04:33:24;;;;;;;26.90;25.30;;;;;;;-1.32;100.00;101912.88;5049721;28;20044;-75
2024/02/20 04:35:51;;;;;;;26.67;24.98;;;;;;;-1.42;100.00;101903.03;5058103;28;20435;-75
2024/02/20 04:38:18;;;;;;;30.83;29.13;;;;;;;-1.41;100.00;101912.53;5049276;28;20045;-75
2024/02/20 04:40:45;;;;;;;32.72;31.20;;;;;;;-1.35;100.00;101915.69;5041539;28;20055;-75
2024/02/20 04:43:12;;;;;;;28.42;26.63;;;;;;;-1.60;100.00;101912.03;5049363;28;20075;-75
2024/02/20 04:45:42;;;;;;;25.52;23.63;;;;;;;-1.56;100.00;101915.28;5049165;28;20048;-75
2024/02/20 04:48:09;;;;;;;29.13;26.52;;;;;;;-1.59;100.00;101916.31;5050678;28;20116;-74
2024/02/20 04:50:42;;;;;;;24.75;22.85;;;;;;;-1.52;100.00;101921.97;5049861;28;20045;-74
2024/02/20 04:53:09;;;;;;;25.17;23.38;;;;;;;-1.57;100.00;101918.81;5031146;28;20045;-74
2024/02/20 04:55:37;;;;;;;26.25;24.45;;;;;;;-1.51;100.00;101926.22;5045186;28;20056;-75
2024/02/20 04:58:05;;;;;;;25.33;23.63;;;;;;;-1.48;100.00;101926.91;5049146;28;20049;-74
2024/02/20 05:00:38;;;;;;;23.70;22.10;;;;;;;-1.66;100.00;101925.47;5050164;28;20502;-75
2024/02/20 05:03:07;;;;;;;26.27;24.63;;;;;;;-1.80;100.00;101915.06;5049348;28;20715;-74
2024/02/20 05:05:35;;;;;;;27.33;25.23;;;;;;;-1.84;100.00;101927.44;5049605;28;20059;-75
2024/02/20 05:08:02;;;;;;;26.23;24.42;;;;;;;-1.66;100.00;101931.50;5051616;28;20080;-75
2024/02/20 05:10:28;;;;;;;25.35;23.25;;;;;;;-1.52;100.00;101928.00;5049254;28;20053;-74
2024/02/20 05:13:03;;;;;;;22.30;20.67;;;;;;;-1.65;100.00;101933.16;5047029;28;20057;-74
2024/02/20 05:15:30;;;;;;;25.08;23.10;;;;;;;-1.43;100.00;101937.84;5045552;28;20131;-74
2024/02/20 05:17:57;;;;;;;23.40;21.90;;;;;;;-1.55;100.00;101940.41;5049061;28;20817;-75
2024/02/20 05:20:25;;;;;;;25.52;23.85;;;;;;;-1.58;100.00;101936.22;5046721;28;20053;-75
2024/02/20 05:22:58;;;;;;;23.45;22.00;;;;;;;-1.39;100.00;101941.13;5013794;28;20049;-74
2024/02/20 05:25:26;;;;;;;25.98;24.38;;;;;;;-1.33;100.00;101951.16;5049154;28;20075;-74
2024/02/20 05:28:03;;;;;;;25.42;23.92;;;;;;;-1.70;100.00;101950.00;5048920;28;20580;-78
2024/02/20 05:30:30;;;;;;;27.05;25.55;;;;;;;-1.25;100.00;101956.69;5048372;28;20045;-78
2024/02/20 05:33:02;;;;;;;26.45;24.75;;;;;;;-1.14;100.00;101956.00;5049990;28;20718;-76
2024/02/20 05:35:32;;;;;;;27.60;26.00;;;;;;;-1.03;100.00;101960.50;5049300;28;20084;-74
2024/02/20 05:37:59;;;;;;;27.77;26.10;;;;;;;-1.09;100.00;101955.69;5054895;28;20431;-75
2024/02/20 05:40:39;;;;;;;25.90;24.40;;;;;;;-0.89;100.00;101967.44;5053475;28;20045;-75
2024/02/20 05:43:13;;;;;;;27.90;25.85;;;;;;;-0.84;100.00;101974.03;5047420;28;20141;-74
2024/02/20 05:45:40;;;;;;;28.55;26.95;;;;;;;-0.68;100.00;101973.00;5045989;28;20438;-77
2024/02/20 05:48:10;;;;;;;26.30;24.80;;;;;;;-0.77;100.00;101975.28;5048266;28;20045;-78
2024/02/20 05:50:39;;;;;;;28.27;26.23;;;;;;;-0.54;100.00;101980.75;5049122;28;20049;-76
2024/02/20 05:53:07;;;;;;;30.45;28.25;;;;;;;3.87;100.00;101990.84;5040348;28;20041;-75
2024/02/20 05:55:37;;;;;;;30.02;27.92;;;;;;;1.08;100.00;101984.16;5045872;28;20132;-76
2024/02/20 05:58:05;;;;;;;27.45;25.67;;;;;;;-0.14;100.00;101984.09;5051264;28;20053;-76
2024/02/20 06:00:32;;;;;;;30.98;28.98;;;;;;;-0.41;100.00;101984.22;5052944;28;20135;-76
2024/02/20 06:02:58;;;;;;;25.77;24.23;;;;;;;-0.37;100.00;101990.06;5046120;28;20135;-78
2024/02/20 06:05:25;;;;;;;28.52;26.75;;;;;;;-0.46;100.00;101994.94;5048251;28;20692;-74
2024/02/20 06:07:54;;;;;;;32.28;30.08;;;;;;;-0.44;100.00;101992.25;5047519;28;20045;-76
2024/02/20 06:10:28;;;;;;;29.55;27.75;;;;;;;-0.49;100.00;101997.75;5048711;28;20552;-75
2024/02/20 06:12:55;;;;;;;32.55;30.55;;;;;;;-0.25;100.00;101994.44;5048627;28;20052;-75
2024/02/20 06:15:23;;;;;;;31.77;29.75;;;;;;;-0.21;100.00;101990.69;5043612;28;20092;-75
2024/02/20 06:17:50;;;;;;;29.95;27.73;;;;;;;-0.18;100.00;101997.47;5047889;28;20047;-77
2024/02/20 06:20:17;;;;;;;31.35;29.48;;;;;;;-0.26;100.00;101998.84;5044276;28;20095;-75
2024/02/20 06:22:44;;;;;;;33.05;30.83;;;;;;;-0.14;100.00;102004.16;5053015;28;20128;-75
2024/02/20 06:25:12;;;;;;;30.77;28.95;;;;;;;0.20;100.00;101995.66;5048792;28;20057;-75
2024/02/20 06:27:43;;;;;;;32.25;30.35;;;;;;;0.13;100.00;101997.03;5047866;28;20049;-75
2024/02/20 06:30:12;;;;;;;32.80;30.80;;;;;;;0.20;100.00;102000.88;5048449;28;20080;-75
2024/02/20 06:32:45;;;;;;;33.75;30.67;;;;;;;0.49;100.00;102011.09;5049768;28;20056;-76
2024/02/20 06:35:12;;;;;;;30.42;28.63;;;;;;;0.41;100.00;102016.84;5051723;28;20449;-76
2024/02/20 06:37:50;;;;;;;29.83;28.02;;;;;;;0.51;100.00;102013.59;5052976;28;20060;-76
2024/02/20 06:40:18;;;;;;;30.85;29.02;;;;;;;0.56;100.00;102007.09;5052890;28;20056;-75
2024/02/20 06:42:46;;;;;;;29.98;27.83;;;;;;;0.47;100.00;102014.75;5051971;28;20053;-76
2024/02/20 06:45:13;;;;;;;30.83;29.00;;;;;;;0.80;100.00;102022.81;5031999;28;20060;-79
2024/02/20 06:47:45;;;;;;;31.10;29.20;;;;;;;0.88;100.00;102011.81;5055759;28;20056;-78
2024/02/20 06:50:12;;;;;;;31.85;29.33;;;;;;;0.91;100.00;102012.41;5070497;28;20605;-78
2024/02/20 06:52:43;;;;;;;34.13;31.77;;;;;;;0.78;100.00;102010.78;5072121;28;20568;-75
2024/02/20 06:55:19;;;;;;;32.42;30.33;;;;;;;0.96;100.00;102014.69;5044724;28;20063;-76
2024/02/20 06:57:46;;;;;;;30.92;28.92;;;;;;;1.09;100.00;102019.84;5051409;28;20041;-74
2024/02/20 07:00:48;;;;;;;38.30;34.72;;;;;;;1.25;100.00;102015.16;5050933;28;20127;-75
2024/02/20 07:03:15;;;;;;;34.08;31.88;;;;;;;1.51;100.00;102010.63;5051890;28;20075;-76
2024/02/20 07:05:45;;;;;;;35.63;32.67;;;;;;;1.54;100.00;102005.16;5052521;28;20053;-75
2024/02/20 07:08:12;;;;;;;35.42;32.58;;;;;;;1.52;100.00;102012.28;5051492;28;20059;-75
2024/02/20 07:10:40;;;;;;;35.17;32.55;;;;;;;1.48;100.00;102007.38;5051557;28;20053;-75
2024/02/20 07:13:11;;;;;;;32.95;30.63;;;;;;;1.81;100.00;102001.38;5051147;28;20075;-74
2024/02/20 07:15:45;;;;;;;33.42;31.02;;;;;;;1.86;100.00;102008.88;5046553;28;20045;-74
2024/02/20 07:18:12;;;;;;;34.45;32.05;;;;;;;2.07;100.00;102017.72;5051395;28;20052;-74
2024/02/20 07:20:41;;;;;;;34.92;32.08;;;;;;;2.16;100.00;102005.69;5052025;28;20057;-76
2024/02/20 07:23:17;;;;;;;38.00;35.03;;;;;;;2.36;100.00;102006.72;5042917;28;20045;-76
2024/02/20 07:25:52;;;;;;;36.95;34.25;;;;;;;2.37;100.00;102009.25;5051901;28;20140;-75
2024/02/20 07:28:20;;;;;;;35.30;32.67;;;;;;;2.43;100.00;102014.00;5043886;28;20049;-75
2024/02/20 07:30:48;;;;;;;38.15;35.15;;;;;;;2.56;100.00;102008.63;5051482;28;20045;-75
2024/02/20 07:33:28;;;;;;;36.25;33.65;;;;;;;2.57;100.00;102012.91;5041826;28;20071;-76
2024/02/20 07:35:59;;;;;;;40.55;37.45;;;;;;;2.70;100.00;102004.91;5051253;28;20056;-75
2024/02/20 07:38:29;;;;;;;40.10;37.13;;;;;;;2.87;100.00;101999.13;5051777;28;20119;-76
2024/02/20 07:41:02;;;;;;;39.05;35.85;;;;;;;3.05;100.00;101999.41;5050826;28;20045;-77
2024/02/20 07:43:29;;;;;;;39.13;36.33;;;;;;;2.93;100.00;102001.25;5042849;28;20045;-77
2024/02/20 07:45:56;;;;;;;40.45;37.45;;;;;;;3.20;100.00;102002.56;5051003;28;20045;-77
2024/02/20 07:48:23;;;;;;;40.42;37.40;;;;;;;3.31;100.00;102002.53;5050816;28;20037;-76
2024/02/20 07:50:53;;;;;;;40.90;37.47;;;;;;;3.50;100.00;102001.81;5051271;28;20493;-77
2024/02/20 07:53:21;;;;;;;47.85;44.45;;;;;;;3.70;100.00;101996.72;5043408;28;20080;-78
2024/02/20 07:55:48;;;;;;;42.75;39.63;;;;;;;3.71;100.00;101987.84;5051397;28;20426;-77
2024/02/20 07:58:16;;;;;;;40.70;37.70;;;;;;;4.13;100.00;101993.88;5051318;28;20049;-75
2024/02/20 08:01:03;;;;;;;45.63;42.33;;;;;;;4.51;100.00;101989.72;5050540;28;20053;-75
2024/02/20 08:03:33;;;;;;;44.65;41.65;;;;;;;4.77;100.00;101990.84;5021567;28;20061;-77
2024/02/20 08:06:07;;;;;;;44.25;41.13;;;;;;;5.15;100.00;101994.47;5048298;28;20550;-75
2024/02/20 08:08:36;;;;;;;39.92;37.13;;;;;;;4.71;100.00;101987.94;5051520;28;20045;-77
2024/02/20 08:11:03;;;;;;;42.75;39.58;;;;;;;4.92;100.00;101990.44;5050881;28;20770;-75
2024/02/20 08:13:36;;;;;;;43.22;40.13;;;;;;;5.11;100.00;101986.97;5051182;28;20460;-75
2024/02/20 08:16:05;;;;;;;41.70;38.80;;;;;;;5.84;100.00;101982.84;5053477;28;20052;-75
2024/02/20 08:18:32;;;;;;;40.65;37.75;;;;;;;5.66;100.00;101995.94;5054690;28;20041;-75
2024/02/20 08:20:59;;;;;;;40.53;37.65;;;;;;;5.88;100.00;101984.22;5048801;28;20080;-75
2024/02/20 08:23:33;;;;;;;37.38;34.88;;;;;;;5.88;100.00;101986.84;5040930;28;20048;-75
2024/02/20 08:26:02;;;;;;;36.53;34.03;;;;;;;6.22;100.00;101985.50;5049774;28;20052;-75
2024/02/20 08:28:29;;;;;;;37.90;35.17;;;;;;;5.97;100.00;101983.38;5054189;28;20049;-77
2024/02/20 08:30:59;;;;;;;34.83;32.50;;;;;;;6.63;100.00;101995.56;5047827;28;20076;-78
2024/02/20 08:33:29;;;;;;;31.65;29.23;;;;;;;6.66;100.00;101986.50;5062520;28;20099;-75
2024/02/20 08:35:55;;;;;;;32.75;30.75;;;;;;;6.81;100.00;101987.66;5052993;28;20432;-75
2024/02/20 08:38:29;;;;;;;35.30;32.90;;;;;;;6.71;100.00;101991.31;5048072;28;20512;-75
2024/02/20 08:40:56;;;;;;;33.10;30.55;;;;;;;6.97;100.00;101986.13;5057597;28;20041;-75
2024/02/20 08:43:26;;;;;;;34.45;32.05;;;;;;;7.25;100.00;101984.22;5057932;28;20076;-77
2024/02/20 08:45:53;;;;;;;34.50;32.30;;;;;;;7.45;100.00;101977.78;5049538;28;20107;-77
2024/02/20 08:48:23;;;;;;;36.13;33.50;;;;;;;7.50;100.00;101979.94;5049895;28;20053;-76
2024/02/20 08:50:51;;;;;;;31.83;29.75;;;;;;;7.22;100.00;101976.59;5048237;28;20044;-76
2024/02/20 08:53:28;;;;;;;31.30;29.25;;;;;;;7.37;100.00;101979.53;5048597;28;20114;-77
2024/02/20 08:55:55;;;;;;;29.23;27.42;;;;;;;7.78;100.00;101986.75;5048700;28;20047;-77
2024/02/20 08:58:28;;;;;;;28.48;26.67;;;;;;;7.91;100.00;101982.84;5048009;28;20049;-77
2024/02/20 09:00:55;;;;;;;29.77;27.75;;;;;;;8.34;100.00;101979.22;5050232;28;20094;-77
2024/02/20 09:03:27;;;;;;;29.15;27.45;;;;;;;8.40;100.00;101988.38;5048462;28;20083;-75
2024/02/20 09:05:54;;;;;;;28.70;26.85;;;;;;;8.59;100.00;101976.69;5049239;28;20081;-76
2024/02/20 09:08:21;;;;;;;30.80;28.48;;;;;;;9.99;100.00;101968.50;5049487;28;20057;-76
2024/02/20 09:10:50;;;;;;;26.63;24.83;;;;;;;10.06;100.00;101973.94;5049361;28;20049;-75
2024/02/20 09:13:18;;;;;;;27.48;25.77;;;;;;;9.93;100.00;101971.00;5050342;28;20048;-76
2024/02/20 09:15:45;;;;;;;31.83;29.67;;;;;;;10.39;100.00;101971.16;5044543;28;20052;-76
2024/02/20 09:18:12;;;;;;;29.38;27.38;;;;;;;10.31;100.00;101975.50;5048639;28;20792;-75
2024/02/20 09:20:58;;;;;;;28.65;26.65;;;;;;;9.91;100.00;101973.00;5048390;28;20799;-76
2024/02/20 09:23:25;;;;;;;26.90;25.20;;;;;;;10.38;100.00;101975.66;5035420;28;20057;-75
2024/02/20 09:25:52;;;;;;;29.27;27.38;;;;;;;11.83;100.00;101975.63;5048413;28;20072;-75
2024/02/20 09:28:35;;;;;;;26.60;24.60;;;;;;;11.99;100.00;101975.50;5048584;28;20053;-76
2024/02/20 09:31:13;;;;;;;25.38;23.70;;;;;;;11.30;100.00;101970.34;5048907;28;20063;-76
2024/02/20 09:33:40;;;;;;;31.55;29.15;;;;;;;11.20;100.00;101981.25;5041843;28;20049;-76
2024/02/20 09:36:19;;;;;;;31.60;28.92;;;;;;;12.03;100.00;101968.78;5048602;28;20493;-75
2024/02/20 09:38:46;;;;;;;27.45;25.55;;;;;;;11.69;100.00;101975.44;5060937;28;20178;-75
2024/02/20 09:41:23;;;;;;;27.25;25.45;;;;;;;12.56;100.00;101981.94;5058024;28;20132;-76
2024/02/20 09:43:56;;;;;;;30.02;27.80;;;;;;;12.19;100.00;101970.41;5048484;28;20540;-77
2024/02/20 09:46:26;;;;;;;29.90;28.00;;;;;;;12.95;100.00;101978.84;5048497;28;20587;-76
2024/02/20 09:48:56;;;;;;;30.65;28.65;;;;;;;12.95;100.00;101970.00;5048975;28;20099;-76
2024/02/20 09:51:29;;;;;;;34.03;31.63;;;;;;;12.77;100.00;101963.28;5049169;28;20131;-78
2024/02/20 09:53:59;;;;;;;28.50;26.60;;;;;;;13.78;100.00;101956.91;5049617;28;20479;-77
2024/02/20 09:56:27;;;;;;;29.27;26.85;;;;;;;14.60;100.00;101962.19;5048994;28;20041;-78
2024/02/20 09:58:54;;;;;;;31.67;29.48;;;;;;;14.35;100.00;101955.72;5049048;28;20139;-77
2024/02/20 10:01:31;;;;;;;32.65;29.52;;;;;;;13.22;100.00;101958.56;5048928;28;20654;-77
2024/02/20 10:03:59;;;;;;;28.25;26.15;;;;;;;14.50;100.00;101959.06;5035291;28;20044;-76
2024/02/20 10:06:29;;;;;;;28.27;26.27;;;;;;;13.46;100.00;101954.66;5049022;28;20118;-75
2024/02/20 10:08:57;;;;;;;30.02;27.90;;;;;;;14.48;100.00;101953.06;5052541;28;20040;-76
2024/02/20 10:11:24;;;;;;;28.25;25.90;;;;;;;15.30;100.00;101941.25;5052663;28;20061;-75
2024/02/20 10:14:01;;;;;;;30.70;28.50;;;;;;;13.36;100.00;101935.50;5053000;28;20132;-75
2024/02/20 10:16:27;;;;;;;33.47;30.65;;;;;;;15.91;100.00;101924.03;5043333;28;20056;-76
2024/02/20 10:18:58;;;;;;;27.33;25.33;;;;;;;13.12;100.00;101928.72;5048283;28;20136;-75
2024/02/20 10:21:25;;;;;;;30.23;27.98;;;;;;;13.67;100.00;101926.22;5048311;28;20501;-75
2024/02/20 10:24:03;;;;;;;27.92;25.83;;;;;;;15.34;100.00;101915.72;5038687;28;20460;-75
2024/02/20 10:26:34;;;;;;;27.90;25.90;;;;;;;17.25;100.00;101915.97;5039361;28;20056;-77
2024/02/20 10:29:01;;;;;;;29.30;27.00;;;;;;;15.67;100.00;101917.50;5052415;28;20063;-77
2024/02/20 10:31:29;;;;;;;31.33;29.13;;;;;;;15.76;100.00;101921.63;5052651;28;20055;-77
2024/02/20 10:33:57;;;;;;;33.63;31.42;;;;;;;13.48;100.00;101923.25;5049411;28;20102;-78
2024/02/20 10:36:29;;;;;;;29.05;26.90;;;;;;;13.96;100.00;101911.81;5052524;28;20053;-76
2024/02/20 10:39:06;;;;;;;30.25;28.25;;;;;;;13.46;100.00;101914.63;5052871;28;20490;-76
2024/02/20 10:41:34;;;;;;;31.20;29.10;;;;;;;14.28;100.00;101917.44;5052930;28;20059;-74
2024/02/20 10:44:03;;;;;;;31.88;29.77;;;;;;;11.52;100.00;101907.44;5052198;28;20045;-77
2024/02/20 10:46:36;;;;;;;29.80;27.55;;;;;;;13.45;100.00;101909.47;5052143;28;20041;-77
2024/02/20 10:49:12;;;;;;;26.38;24.35;;;;;;;12.54;100.00;101909.31;5052192;28;20456;-76
2024/02/20 10:51:42;;;;;;;30.20;28.00;;;;;;;12.78;100.00;101902.78;5052458;28;20053;-76
2024/02/20 10:54:11;;;;;;;29.20;27.20;;;;;;;13.33;100.00;101897.69;5048591;28;20523;-76
2024/02/20 10:56:40;;;;;;;27.98;26.08;;;;;;;13.44;100.00;101894.50;5051807;28;20052;-76
2024/02/20 10:59:10;;;;;;;28.15;26.05;;;;;;;13.09;100.00;101889.09;5051833;28;20061;-75
2024/02/20 11:01:51;;;;;;;26.85;24.85;;;;;;;12.81;100.00;101887.22;5032503;28;20512;-75
2024/02/20 11:04:19;;;;;;;26.70;24.80;;;;;;;14.54;100.00;101890.81;5051694;28;20044;-76
2024/02/20 11:07:06;;;;;;;32.05;29.95;;;;;;;12.95;100.00;101879.31;5049330;28;20057;-76
2024/02/20 11:09:34;;;;;;;30.15;27.98;;;;;;;13.80;100.00;101866.72;5046933;28;20045;-75
2024/02/20 11:12:09;;;;;;;31.10;29.10;;;;;;;13.62;100.00;101868.09;5045737;28;20053;-77
2024/02/20 11:14:36;;;;;;;30.50;28.02;;;;;;;13.31;100.00;101865.88;5053143;28;20051;-74